sensor_id;sensor_type;location;lat;lon;timestamp;P1;durP1;ratioP1;P2;durP2;ratioP2
65831;SDS011;52593;42.648;23.332;2022-07-30T00:01:01;6.53;;;3.60;;
65831;SDS011;52593;42.648;23.332;2022-07-30T00:03:27;5.85;;;3.30;;
65831;SDS011;52593;42.648;23.332;2022-07-30T00:05:53;6.47;;;3.60;;
65831;SDS011;52593;42.648;23.332;2022-07-30T00:08:19;5.73;;;3.67;;
65831;SDS011;52593;42.648;23.332;2022-07-30T00:10:46;6.55;;;3.67;;
65831;SDS011;52593;42.648;23.332;2022-07-30T00:13:11;6.18;;;4.00;;
65831;SDS011;52593;42.648;23.332;2022-07-30T00:15:37;6.43;;;3.70;;
65831;SDS011;52593;42.648;23.332;2022-07-30T00:18:02;7.87;;;3.80;;
65831;SDS011;52593;42.648;23.332;2022-07-30T00:20:27;6.10;;;3.60;;
65831;SDS011;52593;42.648;23.332;2022-07-30T00:22:53;7.60;;;3.60;;
65831;SDS011;52593;42.648;23.332;2022-07-30T00:25:19;6.95;;;3.85;;
65831;SDS011;52593;42.648;23.332;2022-07-30T00:27:44;6.37;;;3.87;;
65831;SDS011;52593;42.648;23.332;2022-07-30T00:30:10;6.63;;;3.67;;
65831;SDS011;52593;42.648;23.332;2022-07-30T00:32:36;6.60;;;3.70;;
65831;SDS011;52593;42.648;23.332;2022-07-30T00:35:01;6.67;;;4.00;;
65831;SDS011;52593;42.648;23.332;2022-07-30T00:37:27;6.95;;;3.88;;
65831;SDS011;52593;42.648;23.332;2022-07-30T00:39:53;6.20;;;3.80;;
65831;SDS011;52593;42.648;23.332;2022-07-30T00:42:18;7.10;;;3.60;;
65831;SDS011;52593;42.648;23.332;2022-07-30T00:44:50;8.50;;;3.40;;
65831;SDS011;52593;42.648;23.332;2022-07-30T00:47:16;9.30;;;3.95;;
65831;SDS011;52593;42.648;23.332;2022-07-30T00:49:42;7.53;;;3.90;;
65831;SDS011;52593;42.648;23.332;2022-07-30T00:52:07;6.93;;;3.87;;
65831;SDS011;52593;42.648;23.332;2022-07-30T00:54:33;6.25;;;3.60;;
65831;SDS011;52593;42.648;23.332;2022-07-30T00:56:58;7.97;;;4.33;;
65831;SDS011;52593;42.648;23.332;2022-07-30T00:59:24;5.63;;;3.63;;
65831;SDS011;52593;42.648;23.332;2022-07-30T01:01:51;7.15;;;4.00;;
65831;SDS011;52593;42.648;23.332;2022-07-30T01:04:17;7.90;;;4.03;;
65831;SDS011;52593;42.648;23.332;2022-07-30T01:06:42;6.10;;;3.83;;
65831;SDS011;52593;42.648;23.332;2022-07-30T01:09:08;9.10;;;3.83;;
65831;SDS011;52593;42.648;23.332;2022-07-30T01:11:38;7.10;;;3.57;;
65831;SDS011;52593;42.648;23.332;2022-07-30T01:14:05;8.30;;;3.70;;
65831;SDS011;52593;42.648;23.332;2022-07-30T01:16:33;6.73;;;3.73;;
65831;SDS011;52593;42.648;23.332;2022-07-30T01:19:03;6.40;;;3.47;;
65831;SDS011;52593;42.648;23.332;2022-07-30T01:21:56;8.25;;;4.10;;
65831;SDS011;52593;42.648;23.332;2022-07-30T01:24:29;8.02;;;3.72;;
65831;SDS011;52593;42.648;23.332;2022-07-30T01:26:59;8.95;;;3.85;;
65831;SDS011;52593;42.648;23.332;2022-07-30T01:29:26;6.33;;;3.70;;
65831;SDS011;52593;42.648;23.332;2022-07-30T01:31:55;7.03;;;3.72;;
65831;SDS011;52593;42.648;23.332;2022-07-30T01:34:25;8.43;;;4.00;;
65831;SDS011;52593;42.648;23.332;2022-07-30T01:36:53;8.18;;;3.60;;
65831;SDS011;52593;42.648;23.332;2022-07-30T01:39:21;6.10;;;3.65;;
65831;SDS011;52593;42.648;23.332;2022-07-30T01:41:47;8.13;;;3.83;;
65831;SDS011;52593;42.648;23.332;2022-07-30T01:44:14;7.47;;;3.83;;
65831;SDS011;52593;42.648;23.332;2022-07-30T01:46:41;6.72;;;3.72;;
65831;SDS011;52593;42.648;23.332;2022-07-30T01:49:07;7.60;;;3.85;;
65831;SDS011;52593;42.648;23.332;2022-07-30T01:51:34;7.53;;;4.27;;
65831;SDS011;52593;42.648;23.332;2022-07-30T01:54:02;7.13;;;4.28;;
65831;SDS011;52593;42.648;23.332;2022-07-30T01:56:31;6.90;;;4.10;;
65831;SDS011;52593;42.648;23.332;2022-07-30T01:58:56;9.60;;;5.27;;
65831;SDS011;52593;42.648;23.332;2022-07-30T02:01:23;12.45;;;7.57;;
65831;SDS011;52593;42.648;23.332;2022-07-30T02:03:49;12.40;;;7.53;;
65831;SDS011;52593;42.648;23.332;2022-07-30T02:06:21;10.20;;;6.57;;
65831;SDS011;52593;42.648;23.332;2022-07-30T02:08:55;8.93;;;5.38;;
65831;SDS011;52593;42.648;23.332;2022-07-30T02:11:23;7.33;;;4.30;;
65831;SDS011;52593;42.648;23.332;2022-07-30T02:14:13;7.68;;;4.30;;
65831;SDS011;52593;42.648;23.332;2022-07-30T02:16:43;8.32;;;4.40;;
65831;SDS011;52593;42.648;23.332;2022-07-30T02:19:13;7.97;;;3.95;;
65831;SDS011;52593;42.648;23.332;2022-07-30T02:21:45;8.38;;;4.10;;
65831;SDS011;52593;42.648;23.332;2022-07-30T02:24:14;7.67;;;4.40;;
65831;SDS011;52593;42.648;23.332;2022-07-30T02:26:44;6.80;;;4.00;;
65831;SDS011;52593;42.648;23.332;2022-07-30T02:29:14;9.75;;;4.05;;
65831;SDS011;52593;42.648;23.332;2022-07-30T02:31:42;7.53;;;4.25;;
65831;SDS011;52593;42.648;23.332;2022-07-30T02:34:08;7.70;;;4.10;;
65831;SDS011;52593;42.648;23.332;2022-07-30T02:36:36;6.47;;;3.70;;
65831;SDS011;52593;42.648;23.332;2022-07-30T02:39:06;6.55;;;4.03;;
65831;SDS011;52593;42.648;23.332;2022-07-30T02:41:32;8.02;;;4.03;;
65831;SDS011;52593;42.648;23.332;2022-07-30T02:44:02;7.60;;;4.00;;
65831;SDS011;52593;42.648;23.332;2022-07-30T02:46:28;8.10;;;4.18;;
65831;SDS011;52593;42.648;23.332;2022-07-30T02:48:56;8.67;;;4.00;;
65831;SDS011;52593;42.648;23.332;2022-07-30T02:51:22;10.07;;;4.20;;
65831;SDS011;52593;42.648;23.332;2022-07-30T02:53:50;8.77;;;4.10;;
65831;SDS011;52593;42.648;23.332;2022-07-30T02:56:17;8.50;;;4.47;;
65831;SDS011;52593;42.648;23.332;2022-07-30T02:58:44;7.88;;;4.30;;
65831;SDS011;52593;42.648;23.332;2022-07-30T03:01:12;7.73;;;4.20;;
65831;SDS011;52593;42.648;23.332;2022-07-30T03:03:41;8.23;;;4.25;;
65831;SDS011;52593;42.648;23.332;2022-07-30T03:06:08;9.32;;;4.55;;
65831;SDS011;52593;42.648;23.332;2022-07-30T03:08:34;9.05;;;4.50;;
65831;SDS011;52593;42.648;23.332;2022-07-30T03:11:00;12.50;;;4.90;;
65831;SDS011;52593;42.648;23.332;2022-07-30T03:13:27;10.90;;;4.60;;
65831;SDS011;52593;42.648;23.332;2022-07-30T03:15:53;9.20;;;4.80;;
65831;SDS011;52593;42.648;23.332;2022-07-30T03:18:22;9.13;;;4.32;;
65831;SDS011;52593;42.648;23.332;2022-07-30T03:20:49;7.70;;;4.80;;
65831;SDS011;52593;42.648;23.332;2022-07-30T03:23:18;8.38;;;4.78;;
65831;SDS011;52593;42.648;23.332;2022-07-30T03:25:45;8.17;;;4.90;;
65831;SDS011;52593;42.648;23.332;2022-07-30T03:28:13;7.25;;;4.50;;
65831;SDS011;52593;42.648;23.332;2022-07-30T03:30:40;10.30;;;4.97;;
65831;SDS011;52593;42.648;23.332;2022-07-30T03:33:08;8.43;;;4.80;;
65831;SDS011;52593;42.648;23.332;2022-07-30T03:35:34;9.10;;;4.40;;
65831;SDS011;52593;42.648;23.332;2022-07-30T03:38:00;9.27;;;4.53;;
65831;SDS011;52593;42.648;23.332;2022-07-30T03:40:26;7.63;;;4.35;;
65831;SDS011;52593;42.648;23.332;2022-07-30T03:42:53;7.00;;;4.35;;
65831;SDS011;52593;42.648;23.332;2022-07-30T03:45:19;9.00;;;4.47;;
65831;SDS011;52593;42.648;23.332;2022-07-30T03:47:45;6.50;;;4.17;;
65831;SDS011;52593;42.648;23.332;2022-07-30T03:50:12;7.47;;;4.45;;
65831;SDS011;52593;42.648;23.332;2022-07-30T03:52:39;9.10;;;4.50;;
65831;SDS011;52593;42.648;23.332;2022-07-30T03:55:08;9.23;;;4.40;;
65831;SDS011;52593;42.648;23.332;2022-07-30T03:57:35;9.27;;;4.70;;
65831;SDS011;52593;42.648;23.332;2022-07-30T04:00:03;8.98;;;4.60;;
65831;SDS011;52593;42.648;23.332;2022-07-30T04:02:42;7.95;;;4.40;;
65831;SDS011;52593;42.648;23.332;2022-07-30T04:05:10;8.20;;;4.37;;
65831;SDS011;52593;42.648;23.332;2022-07-30T04:07:37;8.13;;;4.40;;
65831;SDS011;52593;42.648;23.332;2022-07-30T04:10:02;6.72;;;4.22;;
65831;SDS011;52593;42.648;23.332;2022-07-30T04:12:28;9.13;;;4.50;;
65831;SDS011;52593;42.648;23.332;2022-07-30T04:14:54;6.70;;;4.30;;
65831;SDS011;52593;42.648;23.332;2022-07-30T04:17:22;6.70;;;3.97;;
65831;SDS011;52593;42.648;23.332;2022-07-30T04:20:02;8.10;;;4.63;;
65831;SDS011;52593;42.648;23.332;2022-07-30T04:22:32;7.53;;;4.53;;
65831;SDS011;52593;42.648;23.332;2022-07-30T04:25:01;7.18;;;4.45;;
65831;SDS011;52593;42.648;23.332;2022-07-30T04:27:30;10.23;;;4.37;;
65831;SDS011;52593;42.648;23.332;2022-07-30T04:29:56;7.68;;;4.25;;
65831;SDS011;52593;42.648;23.332;2022-07-30T04:32:21;8.47;;;4.63;;
65831;SDS011;52593;42.648;23.332;2022-07-30T04:34:50;9.10;;;4.90;;
65831;SDS011;52593;42.648;23.332;2022-07-30T04:37:19;9.00;;;4.45;;
65831;SDS011;52593;42.648;23.332;2022-07-30T04:39:46;7.65;;;4.35;;
65831;SDS011;52593;42.648;23.332;2022-07-30T04:42:18;8.23;;;4.43;;
65831;SDS011;52593;42.648;23.332;2022-07-30T04:44:43;7.50;;;4.40;;
65831;SDS011;52593;42.648;23.332;2022-07-30T04:47:09;8.23;;;4.70;;
65831;SDS011;52593;42.648;23.332;2022-07-30T04:49:34;8.53;;;4.57;;
65831;SDS011;52593;42.648;23.332;2022-07-30T04:52:01;9.73;;;4.73;;
65831;SDS011;52593;42.648;23.332;2022-07-30T04:54:30;9.48;;;4.50;;
65831;SDS011;52593;42.648;23.332;2022-07-30T04:57:03;10.18;;;4.70;;
65831;SDS011;52593;42.648;23.332;2022-07-30T04:59:31;6.63;;;4.20;;
65831;SDS011;52593;42.648;23.332;2022-07-30T05:01:58;9.83;;;4.60;;
65831;SDS011;52593;42.648;23.332;2022-07-30T05:04:24;8.52;;;4.70;;
65831;SDS011;52593;42.648;23.332;2022-07-30T05:06:52;8.63;;;4.63;;
65831;SDS011;52593;42.648;23.332;2022-07-30T05:09:19;10.98;;;4.68;;
65831;SDS011;52593;42.648;23.332;2022-07-30T05:11:49;8.77;;;4.95;;
65831;SDS011;52593;42.648;23.332;2022-07-30T05:14:19;9.50;;;4.70;;
65831;SDS011;52593;42.648;23.332;2022-07-30T05:16:45;8.60;;;4.40;;
65831;SDS011;52593;42.648;23.332;2022-07-30T05:19:10;10.07;;;4.77;;
65831;SDS011;52593;42.648;23.332;2022-07-30T05:21:36;8.82;;;4.70;;
65831;SDS011;52593;42.648;23.332;2022-07-30T05:24:01;7.40;;;4.63;;
65831;SDS011;52593;42.648;23.332;2022-07-30T05:26:27;8.10;;;4.70;;
65831;SDS011;52593;42.648;23.332;2022-07-30T05:28:52;8.43;;;4.97;;
65831;SDS011;52593;42.648;23.332;2022-07-30T05:31:17;9.57;;;4.90;;
65831;SDS011;52593;42.648;23.332;2022-07-30T05:33:43;8.50;;;4.67;;
65831;SDS011;52593;42.648;23.332;2022-07-30T05:36:08;8.27;;;4.80;;
65831;SDS011;52593;42.648;23.332;2022-07-30T05:38:34;14.37;;;4.93;;
65831;SDS011;52593;42.648;23.332;2022-07-30T05:40:59;7.93;;;4.63;;
65831;SDS011;52593;42.648;23.332;2022-07-30T05:43:25;7.67;;;4.30;;
65831;SDS011;52593;42.648;23.332;2022-07-30T05:45:50;9.70;;;4.67;;
65831;SDS011;52593;42.648;23.332;2022-07-30T05:48:16;6.65;;;4.40;;
65831;SDS011;52593;42.648;23.332;2022-07-30T05:50:42;7.07;;;4.30;;
65831;SDS011;52593;42.648;23.332;2022-07-30T05:53:07;8.02;;;4.43;;
65831;SDS011;52593;42.648;23.332;2022-07-30T05:55:32;7.90;;;4.63;;
65831;SDS011;52593;42.648;23.332;2022-07-30T05:57:58;8.87;;;4.70;;
65831;SDS011;52593;42.648;23.332;2022-07-30T06:00:23;7.47;;;4.53;;
65831;SDS011;52593;42.648;23.332;2022-07-30T06:02:49;9.60;;;4.38;;
65831;SDS011;52593;42.648;23.332;2022-07-30T06:05:14;7.10;;;4.30;;
65831;SDS011;52593;42.648;23.332;2022-07-30T06:07:40;6.97;;;4.60;;
65831;SDS011;52593;42.648;23.332;2022-07-30T06:10:05;8.03;;;4.33;;
65831;SDS011;52593;42.648;23.332;2022-07-30T06:12:31;10.77;;;5.00;;
65831;SDS011;52593;42.648;23.332;2022-07-30T06:14:56;8.80;;;4.57;;
65831;SDS011;52593;42.648;23.332;2022-07-30T06:17:22;8.90;;;4.53;;
65831;SDS011;52593;42.648;23.332;2022-07-30T06:19:48;8.90;;;4.77;;
65831;SDS011;52593;42.648;23.332;2022-07-30T06:22:14;9.27;;;5.47;;
65831;SDS011;52593;42.648;23.332;2022-07-30T06:24:41;10.95;;;4.78;;
65831;SDS011;52593;42.648;23.332;2022-07-30T06:27:06;12.77;;;5.17;;
65831;SDS011;52593;42.648;23.332;2022-07-30T06:29:32;8.50;;;4.80;;
65831;SDS011;52593;42.648;23.332;2022-07-30T06:31:57;8.60;;;4.88;;
65831;SDS011;52593;42.648;23.332;2022-07-30T06:34:23;9.57;;;5.37;;
65831;SDS011;52593;42.648;23.332;2022-07-30T06:36:49;8.43;;;4.53;;
65831;SDS011;52593;42.648;23.332;2022-07-30T06:39:15;7.13;;;4.80;;
65831;SDS011;52593;42.648;23.332;2022-07-30T06:41:40;7.83;;;4.93;;
65831;SDS011;52593;42.648;23.332;2022-07-30T06:44:06;8.27;;;4.67;;
65831;SDS011;52593;42.648;23.332;2022-07-30T06:46:31;8.85;;;5.00;;
65831;SDS011;52593;42.648;23.332;2022-07-30T06:48:57;7.60;;;4.67;;
65831;SDS011;52593;42.648;23.332;2022-07-30T06:51:22;8.93;;;4.77;;
65831;SDS011;52593;42.648;23.332;2022-07-30T06:53:47;8.73;;;4.97;;
65831;SDS011;52593;42.648;23.332;2022-07-30T06:56:13;11.57;;;5.20;;
65831;SDS011;52593;42.648;23.332;2022-07-30T06:58:38;9.13;;;5.07;;
65831;SDS011;52593;42.648;23.332;2022-07-30T07:01:04;9.60;;;5.70;;
65831;SDS011;52593;42.648;23.332;2022-07-30T07:03:30;7.85;;;5.20;;
65831;SDS011;52593;42.648;23.332;2022-07-30T07:05:55;14.33;;;6.07;;
65831;SDS011;52593;42.648;23.332;2022-07-30T07:08:21;14.82;;;5.85;;
65831;SDS011;52593;42.648;23.332;2022-07-30T07:10:46;9.40;;;5.60;;
65831;SDS011;52593;42.648;23.332;2022-07-30T07:13:12;9.70;;;5.37;;
65831;SDS011;52593;42.648;23.332;2022-07-30T07:15:37;8.95;;;4.82;;
65831;SDS011;52593;42.648;23.332;2022-07-30T07:18:03;8.23;;;5.43;;
65831;SDS011;52593;42.648;23.332;2022-07-30T07:20:30;8.52;;;5.10;;
65831;SDS011;52593;42.648;23.332;2022-07-30T07:22:56;7.63;;;4.93;;
65831;SDS011;52593;42.648;23.332;2022-07-30T07:25:21;9.77;;;5.40;;
65831;SDS011;52593;42.648;23.332;2022-07-30T07:27:47;9.65;;;5.28;;
65831;SDS011;52593;42.648;23.332;2022-07-30T07:30:13;8.20;;;5.10;;
65831;SDS011;52593;42.648;23.332;2022-07-30T07:32:38;9.30;;;5.10;;
65831;SDS011;52593;42.648;23.332;2022-07-30T07:35:04;11.00;;;5.22;;
65831;SDS011;52593;42.648;23.332;2022-07-30T07:37:30;8.67;;;5.10;;
65831;SDS011;52593;42.648;23.332;2022-07-30T07:39:55;10.30;;;5.28;;
65831;SDS011;52593;42.648;23.332;2022-07-30T07:42:21;9.57;;;5.20;;
65831;SDS011;52593;42.648;23.332;2022-07-30T07:44:47;9.97;;;4.93;;
65831;SDS011;52593;42.648;23.332;2022-07-30T07:47:12;9.60;;;5.30;;
65831;SDS011;52593;42.648;23.332;2022-07-30T07:49:37;8.43;;;5.30;;
65831;SDS011;52593;42.648;23.332;2022-07-30T07:52:03;7.80;;;5.40;;
65831;SDS011;52593;42.648;23.332;2022-07-30T07:54:29;10.82;;;5.40;;
65831;SDS011;52593;42.648;23.332;2022-07-30T07:56:54;8.53;;;5.00;;
65831;SDS011;52593;42.648;23.332;2022-07-30T07:59:20;7.85;;;5.30;;
65831;SDS011;52593;42.648;23.332;2022-07-30T08:01:46;7.80;;;5.23;;
65831;SDS011;52593;42.648;23.332;2022-07-30T08:04:11;10.23;;;5.65;;
65831;SDS011;52593;42.648;23.332;2022-07-30T08:06:36;9.10;;;5.23;;
65831;SDS011;52593;42.648;23.332;2022-07-30T08:09:02;12.13;;;5.60;;
65831;SDS011;52593;42.648;23.332;2022-07-30T08:11:27;8.45;;;5.68;;
65831;SDS011;52593;42.648;23.332;2022-07-30T08:13:53;8.63;;;5.77;;
65831;SDS011;52593;42.648;23.332;2022-07-30T08:16:19;10.63;;;6.25;;
65831;SDS011;52593;42.648;23.332;2022-07-30T08:18:44;7.20;;;5.10;;
65831;SDS011;52593;42.648;23.332;2022-07-30T08:21:10;8.33;;;5.20;;
65831;SDS011;52593;42.648;23.332;2022-07-30T08:23:35;9.20;;;4.97;;
65831;SDS011;52593;42.648;23.332;2022-07-30T08:26:01;9.43;;;5.72;;
65831;SDS011;52593;42.648;23.332;2022-07-30T08:28:26;10.13;;;5.80;;
65831;SDS011;52593;42.648;23.332;2022-07-30T08:30:52;7.77;;;5.40;;
65831;SDS011;52593;42.648;23.332;2022-07-30T08:33:17;9.13;;;5.38;;
65831;SDS011;52593;42.648;23.332;2022-07-30T08:35:43;9.00;;;5.47;;
65831;SDS011;52593;42.648;23.332;2022-07-30T08:38:08;8.10;;;5.50;;
65831;SDS011;52593;42.648;23.332;2022-07-30T08:40:34;8.50;;;5.67;;
65831;SDS011;52593;42.648;23.332;2022-07-30T08:43:03;9.63;;;5.35;;
65831;SDS011;52593;42.648;23.332;2022-07-30T08:45:30;8.07;;;5.72;;
65831;SDS011;52593;42.648;23.332;2022-07-30T08:47:56;7.32;;;5.35;;
65831;SDS011;52593;42.648;23.332;2022-07-30T08:50:24;7.38;;;5.20;;
65831;SDS011;52593;42.648;23.332;2022-07-30T08:52:50;8.57;;;5.50;;
65831;SDS011;52593;42.648;23.332;2022-07-30T08:55:19;10.38;;;5.38;;
65831;SDS011;52593;42.648;23.332;2022-07-30T08:57:48;9.15;;;5.78;;
65831;SDS011;52593;42.648;23.332;2022-07-30T09:00:15;8.83;;;5.20;;
65831;SDS011;52593;42.648;23.332;2022-07-30T09:02:41;8.13;;;5.10;;
65831;SDS011;52593;42.648;23.332;2022-07-30T09:05:08;8.20;;;5.38;;
65831;SDS011;52593;42.648;23.332;2022-07-30T09:07:34;7.97;;;5.40;;
65831;SDS011;52593;42.648;23.332;2022-07-30T09:10:00;9.50;;;5.53;;
65831;SDS011;52593;42.648;23.332;2022-07-30T09:20:19;9.43;;;5.55;;
65831;SDS011;52593;42.648;23.332;2022-07-30T09:22:50;7.83;;;5.30;;
65831;SDS011;52593;42.648;23.332;2022-07-30T09:28:05;9.10;;;5.22;;
65831;SDS011;52593;42.648;23.332;2022-07-30T09:30:42;7.82;;;4.88;;
65831;SDS011;52593;42.648;23.332;2022-07-30T09:33:10;7.82;;;5.43;;
65831;SDS011;52593;42.648;23.332;2022-07-30T09:35:35;9.77;;;5.97;;
65831;SDS011;52593;42.648;23.332;2022-07-30T09:38:01;7.25;;;5.00;;
65831;SDS011;52593;42.648;23.332;2022-07-30T09:40:28;7.50;;;5.25;;
65831;SDS011;52593;42.648;23.332;2022-07-30T09:45:31;8.00;;;5.22;;
65831;SDS011;52593;42.648;23.332;2022-07-30T09:47:57;8.50;;;5.40;;
65831;SDS011;52593;42.648;23.332;2022-07-30T09:50:22;8.77;;;5.63;;
65831;SDS011;52593;42.648;23.332;2022-07-30T09:52:48;8.68;;;5.47;;
65831;SDS011;52593;42.648;23.332;2022-07-30T09:55:14;8.57;;;5.40;;
65831;SDS011;52593;42.648;23.332;2022-07-30T09:57:55;8.20;;;5.57;;
65831;SDS011;52593;42.648;23.332;2022-07-30T10:00:23;7.18;;;5.35;;
65831;SDS011;52593;42.648;23.332;2022-07-30T10:02:50;9.00;;;5.15;;
65831;SDS011;52593;42.648;23.332;2022-07-30T10:05:17;9.43;;;5.97;;
65831;SDS011;52593;42.648;23.332;2022-07-30T10:07:53;8.93;;;5.30;;
65831;SDS011;52593;42.648;23.332;2022-07-30T10:10:23;7.80;;;5.55;;
65831;SDS011;52593;42.648;23.332;2022-07-30T10:12:50;8.15;;;5.50;;
65831;SDS011;52593;42.648;23.332;2022-07-30T10:15:23;8.52;;;6.13;;
65831;SDS011;52593;42.648;23.332;2022-07-30T10:17:51;9.15;;;6.22;;
65831;SDS011;52593;42.648;23.332;2022-07-30T10:20:16;16.97;;;11.33;;
65831;SDS011;52593;42.648;23.332;2022-07-30T10:22:43;9.77;;;6.30;;
65831;SDS011;52593;42.648;23.332;2022-07-30T10:25:09;10.13;;;5.97;;
65831;SDS011;52593;42.648;23.332;2022-07-30T10:27:35;8.68;;;6.40;;
65831;SDS011;52593;42.648;23.332;2022-07-30T10:30:02;12.55;;;7.53;;
65831;SDS011;52593;42.648;23.332;2022-07-30T10:32:28;8.07;;;6.57;;
65831;SDS011;52593;42.648;23.332;2022-07-30T10:34:53;9.43;;;6.70;;
65831;SDS011;52593;42.648;23.332;2022-07-30T10:37:19;9.17;;;6.97;;
65831;SDS011;52593;42.648;23.332;2022-07-30T10:39:51;10.63;;;7.07;;
65831;SDS011;52593;42.648;23.332;2022-07-30T10:47:23;10.35;;;7.40;;
65831;SDS011;52593;42.648;23.332;2022-07-30T10:55:15;13.15;;;7.20;;
65831;SDS011;52593;42.648;23.332;2022-07-30T10:57:58;11.38;;;7.88;;
65831;SDS011;52593;42.648;23.332;2022-07-30T11:00:34;8.80;;;6.22;;
65831;SDS011;52593;42.648;23.332;2022-07-30T11:05:51;8.07;;;6.17;;
65831;SDS011;52593;42.648;23.332;2022-07-30T11:08:37;9.05;;;6.45;;
65831;SDS011;52593;42.648;23.332;2022-07-30T11:11:04;8.75;;;5.95;;
65831;SDS011;52593;42.648;23.332;2022-07-30T11:14:00;8.48;;;5.93;;
65831;SDS011;52593;42.648;23.332;2022-07-30T11:19:07;8.90;;;6.87;;
65831;SDS011;52593;42.648;23.332;2022-07-30T11:21:37;8.52;;;6.13;;
65831;SDS011;52593;42.648;23.332;2022-07-30T11:24:03;9.73;;;7.00;;
65831;SDS011;52593;42.648;23.332;2022-07-30T11:29:06;8.27;;;6.45;;
65831;SDS011;52593;42.648;23.332;2022-07-30T11:31:52;8.33;;;6.47;;
65831;SDS011;52593;42.648;23.332;2022-07-30T11:42:26;8.63;;;6.78;;
65831;SDS011;52593;42.648;23.332;2022-07-30T11:44:52;10.32;;;7.35;;
65831;SDS011;52593;42.648;23.332;2022-07-30T11:47:37;8.68;;;6.70;;
65831;SDS011;52593;42.648;23.332;2022-07-30T11:50:03;11.17;;;8.00;;
65831;SDS011;52593;42.648;23.332;2022-07-30T11:52:28;9.82;;;7.05;;
65831;SDS011;52593;42.648;23.332;2022-07-30T11:54:54;9.27;;;7.20;;
65831;SDS011;52593;42.648;23.332;2022-07-30T11:57:20;10.82;;;8.60;;
65831;SDS011;52593;42.648;23.332;2022-07-30T12:00:02;9.43;;;7.70;;
65831;SDS011;52593;42.648;23.332;2022-07-30T12:02:28;12.25;;;8.60;;
65831;SDS011;52593;42.648;23.332;2022-07-30T12:04:54;9.93;;;7.27;;
65831;SDS011;52593;42.648;23.332;2022-07-30T12:07:22;9.80;;;7.37;;
65831;SDS011;52593;42.648;23.332;2022-07-30T12:09:48;11.50;;;7.47;;
65831;SDS011;52593;42.648;23.332;2022-07-30T12:12:23;9.77;;;7.60;;
65831;SDS011;52593;42.648;23.332;2022-07-30T12:14:49;9.40;;;7.53;;
65831;SDS011;52593;42.648;23.332;2022-07-30T12:17:15;11.65;;;7.03;;
65831;SDS011;52593;42.648;23.332;2022-07-30T12:19:44;8.90;;;6.93;;
65831;SDS011;52593;42.648;23.332;2022-07-30T12:22:10;8.98;;;6.88;;
65831;SDS011;52593;42.648;23.332;2022-07-30T12:24:35;8.63;;;7.53;;
65831;SDS011;52593;42.648;23.332;2022-07-30T12:27:05;9.98;;;7.70;;
65831;SDS011;52593;42.648;23.332;2022-07-30T12:29:32;9.65;;;7.20;;
65831;SDS011;52593;42.648;23.332;2022-07-30T12:31:59;10.67;;;6.73;;
65831;SDS011;52593;42.648;23.332;2022-07-30T12:34:25;8.73;;;7.38;;
65831;SDS011;52593;42.648;23.332;2022-07-30T12:36:51;8.52;;;7.53;;
65831;SDS011;52593;42.648;23.332;2022-07-30T12:39:18;9.60;;;7.40;;
65831;SDS011;52593;42.648;23.332;2022-07-30T12:41:48;9.68;;;7.25;;
65831;SDS011;52593;42.648;23.332;2022-07-30T12:47:00;10.70;;;7.18;;
65831;SDS011;52593;42.648;23.332;2022-07-30T12:49:27;10.90;;;7.38;;
65831;SDS011;52593;42.648;23.332;2022-07-30T12:51:54;9.17;;;7.80;;
65831;SDS011;52593;42.648;23.332;2022-07-30T12:54:19;9.82;;;7.55;;
65831;SDS011;52593;42.648;23.332;2022-07-30T12:56:54;11.03;;;8.10;;
65831;SDS011;52593;42.648;23.332;2022-07-30T12:59:23;12.20;;;7.93;;
65831;SDS011;52593;42.648;23.332;2022-07-30T13:01:50;10.32;;;7.93;;
65831;SDS011;52593;42.648;23.332;2022-07-30T13:04:16;11.45;;;7.55;;
65831;SDS011;52593;42.648;23.332;2022-07-30T13:06:42;8.80;;;7.37;;
65831;SDS011;52593;42.648;23.332;2022-07-30T13:09:17;10.68;;;7.78;;
65831;SDS011;52593;42.648;23.332;2022-07-30T13:11:46;13.00;;;8.43;;
65831;SDS011;52593;42.648;23.332;2022-07-30T13:14:13;10.53;;;7.90;;
65831;SDS011;52593;42.648;23.332;2022-07-30T13:16:40;11.45;;;7.93;;
65831;SDS011;52593;42.648;23.332;2022-07-30T13:19:07;10.13;;;7.65;;
65831;SDS011;52593;42.648;23.332;2022-07-30T13:21:35;10.15;;;7.85;;
65831;SDS011;52593;42.648;23.332;2022-07-30T13:24:01;10.30;;;7.67;;
65831;SDS011;52593;42.648;23.332;2022-07-30T13:26:26;10.93;;;7.93;;
65831;SDS011;52593;42.648;23.332;2022-07-30T13:28:55;8.85;;;7.72;;
65831;SDS011;52593;42.648;23.332;2022-07-30T13:31:21;9.73;;;7.80;;
65831;SDS011;52593;42.648;23.332;2022-07-30T13:33:47;10.63;;;7.97;;
65831;SDS011;52593;42.648;23.332;2022-07-30T13:36:14;9.38;;;7.53;;
65831;SDS011;52593;42.648;23.332;2022-07-30T13:38:40;10.33;;;7.50;;
65831;SDS011;52593;42.648;23.332;2022-07-30T13:41:05;9.30;;;7.47;;
65831;SDS011;52593;42.648;23.332;2022-07-30T13:43:31;9.47;;;7.30;;
65831;SDS011;52593;42.648;23.332;2022-07-30T13:45:56;9.52;;;7.57;;
65831;SDS011;52593;42.648;23.332;2022-07-30T13:48:22;9.90;;;7.80;;
65831;SDS011;52593;42.648;23.332;2022-07-30T13:50:47;11.33;;;7.37;;
65831;SDS011;52593;42.648;23.332;2022-07-30T13:53:14;10.45;;;7.50;;
65831;SDS011;52593;42.648;23.332;2022-07-30T13:55:39;8.90;;;7.03;;
65831;SDS011;52593;42.648;23.332;2022-07-30T13:58:06;9.03;;;6.63;;
65831;SDS011;52593;42.648;23.332;2022-07-30T14:00:33;8.90;;;7.50;;
65831;SDS011;52593;42.648;23.332;2022-07-30T14:03:01;8.85;;;7.45;;
65831;SDS011;52593;42.648;23.332;2022-07-30T14:05:28;9.73;;;7.68;;
65831;SDS011;52593;42.648;23.332;2022-07-30T14:07:55;10.55;;;7.78;;
65831;SDS011;52593;42.648;23.332;2022-07-30T14:10:21;11.77;;;7.63;;
65831;SDS011;52593;42.648;23.332;2022-07-30T14:12:48;9.52;;;7.53;;
65831;SDS011;52593;42.648;23.332;2022-07-30T14:15:20;9.30;;;7.68;;
65831;SDS011;52593;42.648;23.332;2022-07-30T14:17:46;8.77;;;7.28;;
65831;SDS011;52593;42.648;23.332;2022-07-30T14:20:11;10.03;;;7.60;;
65831;SDS011;52593;42.648;23.332;2022-07-30T14:22:37;11.20;;;7.23;;
65831;SDS011;52593;42.648;23.332;2022-07-30T14:25:03;8.63;;;7.20;;
65831;SDS011;52593;42.648;23.332;2022-07-30T14:27:28;9.00;;;7.03;;
65831;SDS011;52593;42.648;23.332;2022-07-30T14:29:54;11.10;;;7.10;;
65831;SDS011;52593;42.648;23.332;2022-07-30T14:32:19;9.37;;;7.30;;
65831;SDS011;52593;42.648;23.332;2022-07-30T14:34:45;9.50;;;7.00;;
65831;SDS011;52593;42.648;23.332;2022-07-30T14:37:10;9.30;;;7.60;;
65831;SDS011;52593;42.648;23.332;2022-07-30T14:39:35;11.00;;;6.83;;
65831;SDS011;52593;42.648;23.332;2022-07-30T14:42:01;12.43;;;7.20;;
65831;SDS011;52593;42.648;23.332;2022-07-30T14:44:26;10.30;;;7.30;;
65831;SDS011;52593;42.648;23.332;2022-07-30T14:46:51;12.20;;;7.20;;
65831;SDS011;52593;42.648;23.332;2022-07-30T14:49:17;8.77;;;7.20;;
65831;SDS011;52593;42.648;23.332;2022-07-30T14:51:43;8.98;;;7.25;;
65831;SDS011;52593;42.648;23.332;2022-07-30T14:54:08;9.00;;;7.03;;
65831;SDS011;52593;42.648;23.332;2022-07-30T14:56:36;8.40;;;7.45;;
65831;SDS011;52593;42.648;23.332;2022-07-30T14:59:02;9.13;;;6.67;;
65831;SDS011;52593;42.648;23.332;2022-07-30T15:01:27;9.30;;;7.20;;
65831;SDS011;52593;42.648;23.332;2022-07-30T15:03:53;8.70;;;6.83;;
65831;SDS011;52593;42.648;23.332;2022-07-30T15:06:18;8.57;;;7.00;;
65831;SDS011;52593;42.648;23.332;2022-07-30T15:08:44;8.63;;;6.90;;
65831;SDS011;52593;42.648;23.332;2022-07-30T15:11:10;9.90;;;7.50;;
65831;SDS011;52593;42.648;23.332;2022-07-30T15:13:35;9.90;;;7.37;;